sensor_id;sensor_type;location;lat;lon;timestamp;pressure;altitude;pressure_sealevel;temperature;humidity
5609;BME280;2826;51.354;9.588;2023-02-04T00:02:25;99178.78;;;5.92;86.28
5609;BME280;2826;51.354;9.588;2023-02-04T00:04:51;99183.06;;;5.88;87.19
5609;BME280;2826;51.354;9.588;2023-02-04T00:07:18;99180.44;;;5.99;86.71
5609;BME280;2826;51.354;9.588;2023-02-04T00:09:44;99196.75;;;5.99;86.73
5609;BME280;2826;51.354;9.588;2023-02-04T00:12:13;99191.59;;;6.01;87.10
5609;BME280;2826;51.354;9.588;2023-02-04T00:14:40;99197.69;;;5.78;88.58
5609;BME280;2826;51.354;9.588;2023-02-04T00:17:06;99210.56;;;5.77;89.66
5609;BME280;2826;51.354;9.588;2023-02-04T00:19:35;99211.44;;;5.72;90.56
5609;BME280;2826;51.354;9.588;2023-02-04T00:22:02;99221.78;;;5.55;91.86
5609;BME280;2826;51.354;9.588;2023-02-04T00:24:29;99235.50;;;5.62;92.07
5609;BME280;2826;51.354;9.588;2023-02-04T00:26:56;99223.53;;;5.34;93.53
5609;BME280;2826;51.354;9.588;2023-02-04T00:29:24;99233.81;;;5.28;94.07
5609;BME280;2826;51.354;9.588;2023-02-04T00:31:51;99232.94;;;5.39;93.28
5609;BME280;2826;51.354;9.588;2023-02-04T00:34:17;99255.25;;;5.41;93.28
5609;BME280;2826;51.354;9.588;2023-02-04T00:36:44;99243.25;;;5.37;93.36
5609;BME280;2826;51.354;9.588;2023-02-04T00:39:11;99255.25;;;5.30;93.15
5609;BME280;2826;51.354;9.588;2023-02-04T00:41:38;99249.25;;;5.33;92.05
5609;BME280;2826;51.354;9.588;2023-02-04T00:44:06;99250.09;;;5.07;90.94
5609;BME280;2826;51.354;9.588;2023-02-04T00:46:34;99253.53;;;5.09;89.88
5609;BME280;2826;51.354;9.588;2023-02-04T00:49:01;99254.38;;;5.20;89.00
5609;BME280;2826;51.354;9.588;2023-02-04T00:51:30;99258.66;;;5.34;87.74
5609;BME280;2826;51.354;9.588;2023-02-04T00:53:57;99256.09;;;5.17;87.55
5609;BME280;2826;51.354;9.588;2023-02-04T00:56:24;99271.56;;;5.21;87.38
5609;BME280;2826;51.354;9.588;2023-02-04T00:58:50;99281.81;;;5.17;87.13
5609;BME280;2826;51.354;9.588;2023-02-04T01:01:17;99278.38;;;5.16;87.33
5609;BME280;2826;51.354;9.588;2023-02-04T01:03:47;99280.94;;;5.07;87.57
5609;BME280;2826;51.354;9.588;2023-02-04T01:06:14;99279.25;;;5.07;86.95
5609;BME280;2826;51.354;9.588;2023-02-04T01:08:40;99276.69;;;5.09;86.88
5609;BME280;2826;51.354;9.588;2023-02-04T01:11:07;99288.66;;;5.07;87.31
5609;BME280;2826;51.354;9.588;2023-02-04T01:13:33;99300.66;;;5.13;86.94
5609;BME280;2826;51.354;9.588;2023-02-04T01:16:00;99296.38;;;5.18;86.92
5609;BME280;2826;51.354;9.588;2023-02-04T01:18:26;99290.41;;;5.16;87.79
5609;BME280;2826;51.354;9.588;2023-02-04T01:20:54;99299.81;;;5.25;87.75
5609;BME280;2826;51.354;9.588;2023-02-04T01:23:21;99303.25;;;5.23;88.22
5609;BME280;2826;51.354;9.588;2023-02-04T01:25:48;99316.13;;;5.28;88.05
5609;BME280;2826;51.354;9.588;2023-02-04T01:28:14;99313.53;;;5.31;88.22
5609;BME280;2826;51.354;9.588;2023-02-04T01:30:41;99313.53;;;5.33;88.21
5609;BME280;2826;51.354;9.588;2023-02-04T01:33:07;99316.13;;;5.36;88.29
5609;BME280;2826;51.354;9.588;2023-02-04T01:35:34;99330.69;;;5.40;88.00
5609;BME280;2826;51.354;9.588;2023-02-04T01:38:02;99334.97;;;5.41;88.14
5609;BME280;2826;51.354;9.588;2023-02-04T01:40:29;99334.13;;;5.38;88.77
5609;BME280;2826;51.354;9.588;2023-02-04T01:42:56;99317.00;;;5.35;88.26
5609;BME280;2826;51.354;9.588;2023-02-04T01:45:23;99335.84;;;5.51;87.98
5609;BME280;2826;51.354;9.588;2023-02-04T01:47:50;99345.28;;;5.54;87.80
5609;BME280;2826;51.354;9.588;2023-02-04T01:50:16;99342.72;;;5.54;87.82
5609;BME280;2826;51.354;9.588;2023-02-04T01:52:44;99347.84;;;5.52;88.06
5609;BME280;2826;51.354;9.588;2023-02-04T01:55:18;99342.69;;;5.49;87.99
5609;BME280;2826;51.354;9.588;2023-02-04T01:57:46;99327.25;;;5.41;87.65
5609;BME280;2826;51.354;9.588;2023-02-04T02:00:15;99349.53;;;5.50;87.72
5609;BME280;2826;51.354;9.588;2023-02-04T02:02:44;99345.25;;;5.58;87.50
5609;BME280;2826;51.354;9.588;2023-02-04T02:05:14;99356.44;;;5.53;88.31
5609;BME280;2826;51.354;9.588;2023-02-04T02:07:41;99334.97;;;5.40;87.76
5609;BME280;2826;51.354;9.588;2023-02-04T02:10:10;99358.13;;;5.63;87.57
5609;BME280;2826;51.354;9.588;2023-02-04T02:12:39;99357.28;;;5.64;87.54
5609;BME280;2826;51.354;9.588;2023-02-04T02:15:07;99358.13;;;5.60;87.96
5609;BME280;2826;51.354;9.588;2023-02-04T02:17:35;99366.69;;;5.65;87.81
5609;BME280;2826;51.354;9.588;2023-02-04T02:20:02;99368.44;;;5.55;88.03
5609;BME280;2826;51.354;9.588;2023-02-04T02:22:34;99365.00;;;5.42;88.91
5609;BME280;2826;51.354;9.588;2023-02-04T02:25:09;99359.84;;;5.52;88.46
5609;BME280;2826;51.354;9.588;2023-02-04T02:27:36;99379.56;;;5.43;89.40
5609;BME280;2826;51.354;9.588;2023-02-04T02:30:03;99354.72;;;5.36;89.57
5609;BME280;2826;51.354;9.588;2023-02-04T02:32:30;99389.84;;;5.39;90.56
5609;BME280;2826;51.354;9.588;2023-02-04T02:34:57;99395.03;;;5.42;91.08
5609;BME280;2826;51.354;9.588;2023-02-04T02:37:23;99408.72;;;5.41;91.66
5609;BME280;2826;51.354;9.588;2023-02-04T02:39:50;99407.88;;;5.46;91.37
5609;BME280;2826;51.354;9.588;2023-02-04T02:42:19;99413.00;;;5.43;92.13
5609;BME280;2826;51.354;9.588;2023-02-04T02:44:47;99386.41;;;5.15;93.12
5609;BME280;2826;51.354;9.588;2023-02-04T02:47:17;99421.53;;;5.20;93.63
5609;BME280;2826;51.354;9.588;2023-02-04T02:49:46;99424.97;;;5.18;93.86
5609;BME280;2826;51.354;9.588;2023-02-04T02:52:14;99427.53;;;5.13;93.95
5609;BME280;2826;51.354;9.588;2023-02-04T02:54:41;99430.97;;;5.20;93.32
5609;BME280;2826;51.354;9.588;2023-02-04T02:57:12;99423.28;;;5.21;93.19
5609;BME280;2826;51.354;9.588;2023-02-04T02:59:41;99421.53;;;5.22;92.78
5609;BME280;2826;51.354;9.588;2023-02-04T03:02:08;99430.97;;;5.17;92.79
5609;BME280;2826;51.354;9.588;2023-02-04T03:04:39;99430.09;;;5.13;93.05
5609;BME280;2826;51.354;9.588;2023-02-04T03:07:09;99439.53;;;5.14;92.84
5609;BME280;2826;51.354;9.588;2023-02-04T03:09:37;99441.25;;;5.10;93.13
5609;BME280;2826;51.354;9.588;2023-02-04T03:12:05;99459.22;;;5.06;93.06
5609;BME280;2826;51.354;9.588;2023-02-04T03:14:33;99472.06;;;5.01;93.27
5609;BME280;2826;51.354;9.588;2023-02-04T03:17:06;99479.78;;;5.01;93.08
5609;BME280;2826;51.354;9.588;2023-02-04T03:19:34;99442.81;;;4.73;92.66
5609;BME280;2826;51.354;9.588;2023-02-04T03:22:03;99490.84;;;4.89;92.92
5609;BME280;2826;51.354;9.588;2023-02-04T03:24:31;99496.84;;;4.91;92.77
5609;BME280;2826;51.354;9.588;2023-02-04T03:26:57;99504.50;;;4.80;93.16
5609;BME280;2826;51.354;9.588;2023-02-04T03:29:24;99516.53;;;4.83;92.66
5609;BME280;2826;51.354;9.588;2023-02-04T03:31:50;99527.72;;;4.93;92.31
5609;BME280;2826;51.354;9.588;2023-02-04T03:34:21;99529.44;;;4.99;91.78
5609;BME280;2826;51.354;9.588;2023-02-04T03:36:47;99535.44;;;4.96;91.72
5609;BME280;2826;51.354;9.588;2023-02-04T03:39:14;99538.91;;;5.00;91.25
5609;BME280;2826;51.354;9.588;2023-02-04T03:41:41;99540.56;;;4.97;91.12
5609;BME280;2826;51.354;9.588;2023-02-04T03:44:07;99540.59;;;4.99;90.59
5609;BME280;2826;51.354;9.588;2023-02-04T03:46:34;99542.31;;;4.97;90.79
5609;BME280;2826;51.354;9.588;2023-02-04T03:49:00;99549.13;;;4.95;90.54
5609;BME280;2826;51.354;9.588;2023-02-04T03:51:28;99546.56;;;4.90;90.20
5609;BME280;2826;51.354;9.588;2023-02-04T03:53:55;99541.41;;;4.90;89.95
5609;BME280;2826;51.354;9.588;2023-02-04T03:56:21;99550.81;;;4.88;90.25
5609;BME280;2826;51.354;9.588;2023-02-04T03:58:47;99549.94;;;4.83;90.14
5609;BME280;2826;51.354;9.588;2023-02-04T04:01:14;99556.69;;;4.71;90.29
5609;BME280;2826;51.354;9.588;2023-02-04T04:03:40;99547.34;;;4.83;89.82
5609;BME280;2826;51.354;9.588;2023-02-04T04:06:07;99547.31;;;4.75;89.58
5609;BME280;2826;51.354;9.588;2023-02-04T04:08:36;99542.00;;;4.50;89.67
5609;BME280;2826;51.354;9.588;2023-02-04T04:11:03;99553.28;;;4.74;89.59
5609;BME280;2826;51.354;9.588;2023-02-04T04:13:30;99550.72;;;4.73;89.22
5609;BME280;2826;51.354;9.588;2023-02-04T04:15:56;99560.94;;;4.63;89.15
5609;BME280;2826;51.354;9.588;2023-02-04T04:18:23;99569.53;;;4.71;88.54
5609;BME280;2826;51.354;9.588;2023-02-04T04:20:50;99564.41;;;4.68;88.00
5609;BME280;2826;51.354;9.588;2023-02-04T04:23:16;99575.50;;;4.63;87.79
5609;BME280;2826;51.354;9.588;2023-02-04T04:25:44;99573.84;;;4.69;87.67
5609;BME280;2826;51.354;9.588;2023-02-04T04:28:11;99591.00;;;4.75;87.08
5609;BME280;2826;51.354;9.588;2023-02-04T04:30:37;99592.78;;;4.84;87.16
5609;BME280;2826;51.354;9.588;2023-02-04T04:33:04;99588.44;;;4.77;86.84
5609;BME280;2826;51.354;9.588;2023-02-04T04:35:31;99596.19;;;4.83;86.60
5609;BME280;2826;51.354;9.588;2023-02-04T04:37:59;99601.34;;;4.83;86.46
5609;BME280;2826;51.354;9.588;2023-02-04T04:40:25;99602.22;;;4.83;86.57
5609;BME280;2826;51.354;9.588;2023-02-04T04:42:53;99615.03;;;4.80;86.87
5609;BME280;2826;51.354;9.588;2023-02-04T04:45:20;99615.03;;;4.82;86.89
5609;BME280;2826;51.354;9.588;2023-02-04T04:47:46;99617.59;;;4.80;87.31
5609;BME280;2826;51.354;9.588;2023-02-04T04:50:13;99620.97;;;4.73;87.67
5609;BME280;2826;51.354;9.588;2023-02-04T04:52:40;99630.41;;;4.73;87.47
5609;BME280;2826;51.354;9.588;2023-02-04T04:55:07;99625.25;;;4.73;87.20
5609;BME280;2826;51.354;9.588;2023-02-04T04:57:33;99630.41;;;4.73;86.82
5609;BME280;2826;51.354;9.588;2023-02-04T05:00:01;99633.78;;;4.71;86.85
5609;BME280;2826;51.354;9.588;2023-02-04T05:02:28;99637.25;;;4.75;86.43
5609;BME280;2826;51.354;9.588;2023-02-04T05:04:54;99642.34;;;4.70;86.30
5609;BME280;2826;51.354;9.588;2023-02-04T05:07:21;99645.72;;;4.65;86.39
5609;BME280;2826;51.354;9.588;2023-02-04T05:09:48;99648.28;;;4.65;86.68
5609;BME280;2826;51.354;9.588;2023-02-04T05:12:14;99649.19;;;4.67;86.13
5609;BME280;2826;51.354;9.588;2023-02-04T05:14:41;99654.28;;;4.62;86.62
5609;BME280;2826;51.354;9.588;2023-02-04T05:17:09;99661.97;;;4.62;86.83
5609;BME280;2826;51.354;9.588;2023-02-04T05:19:37;99673.00;;;4.49;87.17
5609;BME280;2826;51.354;9.588;2023-02-04T05:22:03;99669.47;;;4.37;87.96
5609;BME280;2826;51.354;9.588;2023-02-04T05:24:30;99669.50;;;4.42;87.39
5609;BME280;2826;51.354;9.588;2023-02-04T05:26:56;99676.25;;;4.30;87.41
5609;BME280;2826;51.354;9.588;2023-02-04T05:29:23;99683.06;;;4.25;86.29
5609;BME280;2826;51.354;9.588;2023-02-04T05:31:49;99694.06;;;4.15;86.12
5609;BME280;2826;51.354;9.588;2023-02-04T05:34:17;99708.47;;;4.02;86.46
5609;BME280;2826;51.354;9.588;2023-02-04T05:36:44;99697.19;;;3.90;86.52
5609;BME280;2826;51.354;9.588;2023-02-04T05:39:10;99700.53;;;3.83;86.46
5609;BME280;2826;51.354;9.588;2023-02-04T05:41:37;99716.69;;;3.76;86.35
5609;BME280;2826;51.354;9.588;2023-02-04T05:44:04;99721.75;;;3.71;86.38
5609;BME280;2826;51.354;9.588;2023-02-04T05:46:30;99728.47;;;3.61;87.28
5609;BME280;2826;51.354;9.588;2023-02-04T05:48:56;99729.19;;;3.52;87.45
5609;BME280;2826;51.354;9.588;2023-02-04T05:51:24;99724.78;;;3.42;87.84
5609;BME280;2826;51.354;9.588;2023-02-04T05:53:50;99741.88;;;3.42;87.99
5609;BME280;2826;51.354;9.588;2023-02-04T05:56:17;99739.34;;;3.45;87.50
5609;BME280;2826;51.354;9.588;2023-02-04T05:58:43;99741.84;;;3.38;87.19
5609;BME280;2826;51.354;9.588;2023-02-04T06:01:11;99746.00;;;3.33;87.83
5609;BME280;2826;51.354;9.588;2023-02-04T06:03:37;99736.53;;;3.28;87.71
5609;BME280;2826;51.354;9.588;2023-02-04T06:06:04;99748.41;;;3.21;88.21
5609;BME280;2826;51.354;9.588;2023-02-04T06:08:32;99740.69;;;3.19;88.27
5609;BME280;2826;51.354;9.588;2023-02-04T06:10:59;99744.84;;;3.12;88.11
5609;BME280;2826;51.354;9.588;2023-02-04T06:13:25;99740.47;;;3.07;88.48
5609;BME280;2826;51.354;9.588;2023-02-04T06:15:52;99738.75;;;3.06;88.63
5609;BME280;2826;51.354;9.588;2023-02-04T06:18:18;99748.13;;;3.02;88.96
5609;BME280;2826;51.354;9.588;2023-02-04T06:20:45;99752.41;;;3.03;88.91
5609;BME280;2826;51.354;9.588;2023-02-04T06:23:11;99761.72;;;2.99;88.81
5609;BME280;2826;51.354;9.588;2023-02-04T06:25:39;99777.88;;;2.94;89.05
5609;BME280;2826;51.354;9.588;2023-02-04T06:28:06;99779.53;;;2.92;89.01
5609;BME280;2826;51.354;9.588;2023-02-04T06:30:32;99791.47;;;2.90;89.21
5609;BME280;2826;51.354;9.588;2023-02-04T06:32:59;99793.06;;;2.84;89.40
5609;BME280;2826;51.354;9.588;2023-02-04T06:35:25;99800.56;;;2.75;89.30
5609;BME280;2826;51.354;9.588;2023-02-04T06:37:51;99807.28;;;2.67;90.10
5609;BME280;2826;51.354;9.588;2023-02-04T06:40:18;99808.09;;;2.66;90.38
5609;BME280;2826;51.354;9.588;2023-02-04T06:42:46;99814.19;;;2.71;90.68
5609;BME280;2826;51.354;9.588;2023-02-04T06:45:12;99818.53;;;2.77;90.61
5609;BME280;2826;51.354;9.588;2023-02-04T06:47:39;99812.66;;;2.82;90.60
5609;BME280;2826;51.354;9.588;2023-02-04T06:50:06;99806.75;;;2.86;90.38
5609;BME280;2826;51.354;9.588;2023-02-04T06:52:32;99806.88;;;2.91;90.66
5609;BME280;2826;51.354;9.588;2023-02-04T06:54:59;99812.00;;;2.91;90.42
5609;BME280;2826;51.354;9.588;2023-02-04T06:57:25;99819.69;;;2.93;90.55
5609;BME280;2826;51.354;9.588;2023-02-04T06:59:53;99824.81;;;2.93;90.91
5609;BME280;2826;51.354;9.588;2023-02-04T07:02:20;99835.88;;;2.90;90.73
5609;BME280;2826;51.354;9.588;2023-02-04T07:04:46;99830.75;;;2.90;91.09
5609;BME280;2826;51.354;9.588;2023-02-04T07:07:13;99835.06;;;2.93;90.88
5609;BME280;2826;51.354;9.588;2023-02-04T07:09:40;99831.63;;;2.91;91.16
5609;BME280;2826;51.354;9.588;2023-02-04T07:12:07;99837.63;;;2.93;91.50
5609;BME280;2826;51.354;9.588;2023-02-04T07:14:33;99836.84;;;2.97;91.71
5609;BME280;2826;51.354;9.588;2023-02-04T07:17:01;99839.53;;;3.03;91.48
5609;BME280;2826;51.354;9.588;2023-02-04T07:19:27;99842.13;;;3.06;91.29
5609;BME280;2826;51.354;9.588;2023-02-04T07:21:54;99841.41;;;3.13;91.31
5609;BME280;2826;51.354;9.588;2023-02-04T07:24:21;99844.91;;;3.19;90.88
5609;BME280;2826;51.354;9.588;2023-02-04T07:26:48;99836.53;;;3.28;90.39
5609;BME280;2826;51.354;9.588;2023-02-04T07:29:14;99832.31;;;3.31;90.71
5609;BME280;2826;51.354;9.588;2023-02-04T07:31:41;99839.13;;;3.29;90.86
5609;BME280;2826;51.354;9.588;2023-02-04T07:34:11;99843.44;;;3.32;91.12
5609;BME280;2826;51.354;9.588;2023-02-04T07:36:37;99841.78;;;3.35;91.01
5609;BME280;2826;51.354;9.588;2023-02-04T07:39:04;99853.69;;;3.33;90.78
5609;BME280;2826;51.354;9.588;2023-02-04T07:41:31;99857.25;;;3.40;90.96
5609;BME280;2826;51.354;9.588;2023-02-04T07:43:57;99853.88;;;3.44;90.63
5609;BME280;2826;51.354;9.588;2023-02-04T07:46:23;99862.53;;;3.51;90.82
5609;BME280;2826;51.354;9.588;2023-02-04T07:48:50;99870.31;;;3.56;89.97
5609;BME280;2826;51.354;9.588;2023-02-04T07:51:18;99874.63;;;3.57;89.36
5609;BME280;2826;51.354;9.588;2023-02-04T07:53:45;99873.75;;;3.58;89.52
5609;BME280;2826;51.354;9.588;2023-02-04T07:56:11;99882.31;;;3.57;89.21
5609;BME280;2826;51.354;9.588;2023-02-04T07:58:38;99883.97;;;3.53;89.42
5609;BME280;2826;51.354;9.588;2023-02-04T08:01:04;99882.28;;;3.55;89.12
5609;BME280;2826;51.354;9.588;2023-02-04T08:03:31;99885.66;;;3.52;89.23
5609;BME280;2826;51.354;9.588;2023-02-04T08:05:57;99890.75;;;3.49;89.43
5609;BME280;2826;51.354;9.588;2023-02-04T08:08:25;99883.06;;;3.51;89.55
5609;BME280;2826;51.354;9.588;2023-02-04T08:10:51;99897.66;;;3.53;89.49
5609;BME280;2826;51.354;9.588;2023-02-04T08:13:18;99904.63;;;3.61;89.37
5609;BME280;2826;51.354;9.588;2023-02-04T08:15:45;99904.66;;;3.64;89.31
5609;BME280;2826;51.354;9.588;2023-02-04T08:18:11;99910.72;;;3.68;89.18
5609;BME280;2826;51.354;9.588;2023-02-04T08:20:38;99916.72;;;3.68;88.92
5609;BME280;2826;51.354;9.588;2023-02-04T08:23:04;99920.13;;;3.67;89.08
5609;BME280;2826;51.354;9.588;2023-02-04T08:25:32;99913.22;;;3.64;88.85
5609;BME280;2826;51.354;9.588;2023-02-04T08:27:58;99920.09;;;3.65;89.02
5609;BME280;2826;51.354;9.588;2023-02-04T08:30:25;99920.91;;;3.64;88.79
5609;BME280;2826;51.354;9.588;2023-02-04T08:32:51;99920.16;;;3.70;88.76
5609;BME280;2826;51.354;9.588;2023-02-04T08:35:18;99921.88;;;3.70;88.81
5609;BME280;2826;51.354;9.588;2023-02-04T08:37:45;99917.63;;;3.72;88.68
5609;BME280;2826;51.354;9.588;2023-02-04T08:40:11;99916.03;;;3.80;88.39
5609;BME280;2826;51.354;9.588;2023-02-04T08:42:39;99917.84;;;3.86;87.91
5609;BME280;2826;51.354;9.588;2023-02-04T08:45:07;99917.09;;;3.91;88.35
5609;BME280;2826;51.354;9.588;2023-02-04T08:47:33;99920.69;;;4.03;87.79
5609;BME280;2826;51.354;9.588;2023-02-04T08:49:59;99924.16;;;4.05;87.39
5609;BME280;2826;51.354;9.588;2023-02-04T08:52:26;99927.59;;;4.07;86.75
5609;BME280;2826;51.354;9.588;2023-02-04T08:54:53;99929.47;;;4.19;86.76
5609;BME280;2826;51.354;9.588;2023-02-04T08:57:19;99928.75;;;4.28;86.23
5609;BME280;2826;51.354;9.588;2023-02-04T08:59:47;99933.97;;;4.34;85.65
5609;BME280;2826;51.354;9.588;2023-02-04T09:02:14;99939.19;;;4.40;85.42
5609;BME280;2826;51.354;9.588;2023-02-04T09:04:40;99946.97;;;4.45;84.67
5609;BME280;2826;51.354;9.588;2023-02-04T09:07:07;99923.00;;;4.46;84.25
5609;BME280;2826;51.354;9.588;2023-02-04T09:09:33;99942.09;;;4.65;83.88
5609;BME280;2826;51.354;9.588;2023-02-04T09:12:00;99938.69;;;4.68;83.58
5609;BME280;2826;51.354;9.588;2023-02-04T09:14:27;99940.44;;;4.70;82.49
5609;BME280;2826;51.354;9.588;2023-02-04T09:16:55;99950.03;;;4.84;82.34
5609;BME280;2826;51.354;9.588;2023-02-04T09:19:22;99947.63;;;4.96;81.98
5609;BME280;2826;51.354;9.588;2023-02-04T09:21:50;99952.81;;;5.00;81.00
5609;BME280;2826;51.354;9.588;2023-02-04T09:24:16;99960.63;;;5.09;80.96
5609;BME280;2826;51.354;9.588;2023-02-04T09:26:43;99956.44;;;5.16;80.54
5609;BME280;2826;51.354;9.588;2023-02-04T09:29:10;99965.78;;;5.12;79.29
5609;BME280;2826;51.354;9.588;2023-02-04T09:31:36;99947.69;;;5.01;79.97
5609;BME280;2826;51.354;9.588;2023-02-04T09:34:05;99974.47;;;5.20;79.93
5609;BME280;2826;51.354;9.588;2023-02-04T09:36:31;99982.22;;;5.23;79.35
5609;BME280;2826;51.354;9.588;2023-02-04T09:39:02;99989.31;;;5.45;79.79
5609;BME280;2826;51.354;9.588;2023-02-04T09:41:30;99992.06;;;5.60;78.59
5609;BME280;2826;51.354;9.588;2023-02-04T09:43:57;100000.94;;;5.94;78.37
5609;BME280;2826;51.354;9.588;2023-02-04T09:46:25;100002.09;;;6.28;77.58
5609;BME280;2826;51.354;9.588;2023-02-04T09:48:53;100006.50;;;6.39;74.13
5609;BME280;2826;51.354;9.588;2023-02-04T09:51:25;100005.72;;;6.57;74.45
5609;BME280;2826;51.354;9.588;2023-02-04T09:53:55;100006.69;;;6.73;73.55
5609;BME280;2826;51.354;9.588;2023-02-04T09:56:25;100007.44;;;6.55;70.09
5609;BME280;2826;51.354;9.588;2023-02-04T09:58:51;100021.06;;;6.37;70.48
5609;BME280;2826;51.354;9.588;2023-02-04T10:01:19;100016.72;;;6.33;70.50
5609;BME280;2826;51.354;9.588;2023-02-04T10:03:47;100022.72;;;6.28;71.27
5609;BME280;2826;51.354;9.588;2023-02-04T10:06:16;100024.31;;;6.14;70.65
5609;BME280;2826;51.354;9.588;2023-02-04T10:08:45;100032.94;;;6.16;71.92
5609;BME280;2826;51.354;9.588;2023-02-04T10:11:13;100024.38;;;6.23;71.51
5609;BME280;2826;51.354;9.588;2023-02-04T10:13:43;100011.47;;;6.16;71.03
5609;BME280;2826;51.354;9.588;2023-02-04T10:16:13;100033.81;;;6.20;71.74
5609;BME280;2826;51.354;9.588;2023-02-04T10:18:40;100027.84;;;6.25;72.22
5609;BME280;2826;51.354;9.588;2023-02-04T10:21:14;100030.44;;;6.28;72.14
5609;BME280;2826;51.354;9.588;2023-02-04T10:23:42;100038.25;;;6.36;71.61
5609;BME280;2826;51.354;9.588;2023-02-04T10:26:13;100039.88;;;6.25;70.18
5609;BME280;2826;51.354;9.588;2023-02-04T10:28:40;100045.09;;;6.34;69.57
5609;BME280;2826;51.354;9.588;2023-02-04T10:31:26;100043.44;;;6.43;69.80
5609;BME280;2826;51.354;9.588;2023-02-04T10:34:05;100052.03;;;6.42;68.56
5609;BME280;2826;51.354;9.588;2023-02-04T10:36:32;100047.75;;;6.44;68.16
5609;BME280;2826;51.354;9.588;2023-02-04T10:38:59;100054.75;;;6.62;68.92
5609;BME280;2826;51.354;9.588;2023-02-04T10:41:28;100053.94;;;6.68;67.04
5609;BME280;2826;51.354;9.588;2023-02-04T10:44:02;100047.94;;;6.73;67.73
5609;BME280;2826;51.354;9.588;2023-02-04T10:46:29;100049.69;;;6.79;67.41
5609;BME280;2826;51.354;9.588;2023-02-04T10:48:56;100056.66;;;6.94;66.89
5609;BME280;2826;51.354;9.588;2023-02-04T10:51:24;100060.06;;;6.88;65.99
5609;BME280;2826;51.354;9.588;2023-02-04T10:53:51;100051.47;;;6.86;66.05
5609;BME280;2826;51.354;9.588;2023-02-04T10:56:46;100055.81;;;6.92;66.30
5609;BME280;2826;51.354;9.588;2023-02-04T10:59:20;100061.81;;;6.94;65.23
5609;BME280;2826;51.354;9.588;2023-02-04T11:01:51;100060.13;;;6.98;64.32
5609;BME280;2826;51.354;9.588;2023-02-04T11:04:17;100062.75;;;7.04;64.79
5609;BME280;2826;51.354;9.588;2023-02-04T11:06:44;100065.34;;;7.05;64.31
5609;BME280;2826;51.354;9.588;2023-02-04T11:09:12;100060.22;;;7.15;65.57
5609;BME280;2826;51.354;9.588;2023-02-04T11:11:44;100067.97;;;7.15;63.31
5609;BME280;2826;51.354;9.588;2023-02-04T11:14:24;100063.69;;;7.20;62.62
5609;BME280;2826;51.354;9.588;2023-02-04T11:16:52;100065.47;;;7.35;63.84
5609;BME280;2826;51.354;9.588;2023-02-04T11:19:33;100067.28;;;7.61;64.63
5609;BME280;2826;51.354;9.588;2023-02-04T11:22:05;100026.00;;;7.67;63.79
5609;BME280;2826;51.354;9.588;2023-02-04T11:24:33;100073.44;;;8.33;63.04
5609;BME280;2826;51.354;9.588;2023-02-04T11:27:19;100071.69;;;8.39;59.97
5609;BME280;2826;51.354;9.588;2023-02-04T11:29:46;100076.03;;;8.47;59.42
5609;BME280;2826;51.354;9.588;2023-02-04T11:32:27;100062.22;;;8.37;58.57
5609;BME280;2826;51.354;9.588;2023-02-04T11:35:05;100070.84;;;8.16;58.83
5609;BME280;2826;51.354;9.588;2023-02-04T11:37:37;100073.41;;;8.11;59.33
5609;BME280;2826;51.354;9.588;2023-02-04T11:40:21;100074.31;;;8.26;55.96
5609;BME280;2826;51.354;9.588;2023-02-04T11:42:55;100050.16;;;8.11;57.68
5609;BME280;2826;51.354;9.588;2023-02-04T11:45:24;100048.44;;;8.12;57.15
5609;BME280;2826;51.354;9.588;2023-02-04T11:47:52;100076.84;;;8.07;57.12
5609;BME280;2826;51.354;9.588;2023-02-04T11:50:24;100075.13;;;8.09;57.81
5609;BME280;2826;51.354;9.588;2023-02-04T11:52:53;100075.13;;;8.06;56.97
5609;BME280;2826;51.354;9.588;2023-02-04T11:55:20;100080.31;;;8.03;56.37
5609;BME280;2826;51.354;9.588;2023-02-04T11:57:51;100082.88;;;7.97;57.01
5609;BME280;2826;51.354;9.588;2023-02-04T12:00:20;100078.53;;;7.83;56.45
5609;BME280;2826;51.354;9.588;2023-02-04T12:02:48;100076.75;;;7.62;57.03
5609;BME280;2826;51.354;9.588;2023-02-04T12:05:17;100081.88;;;7.50;58.28
5609;BME280;2826;51.354;9.588;2023-02-04T12:07:45;100079.25;;;7.40;57.81
5609;BME280;2826;51.354;9.588;2023-02-04T12:10:14;100083.50;;;7.29;58.31
5609;BME280;2826;51.354;9.588;2023-02-04T12:12:48;100080.91;;;7.23;57.94
5609;BME280;2826;51.354;9.588;2023-02-04T12:15:21;100080.03;;;7.21;58.44
5609;BME280;2826;51.354;9.588;2023-02-04T12:18:00;100077.44;;;7.17;57.54
5609;BME280;2826;51.354;9.588;2023-02-04T12:20:26;100082.59;;;7.19;57.51
5609;BME280;2826;51.354;9.588;2023-02-04T12:22:53;100083.53;;;7.35;57.30
5609;BME280;2826;51.354;9.588;2023-02-04T12:25:20;100088.78;;;7.57;56.15
5609;BME280;2826;51.354;9.588;2023-02-04T12:27:46;100084.53;;;7.79;56.76
5609;BME280;2826;51.354;9.588;2023-02-04T12:30:13;100081.06;;;7.71;55.65
5609;BME280;2826;51.354;9.588;2023-02-04T12:32:41;100079.31;;;7.59;55.99
5609;BME280;2826;51.354;9.588;2023-02-04T12:35:07;100083.59;;;7.48;56.33
5609;BME280;2826;51.354;9.588;2023-02-04T12:37:34;100073.16;;;7.29;54.38
5609;BME280;2826;51.354;9.588;2023-02-04T12:40:00;100082.56;;;7.08;54.37
5609;BME280;2826;51.354;9.588;2023-02-04T12:42:27;100050.56;;;6.78;55.47
5609;BME280;2826;51.354;9.588;2023-02-04T12:44:53;100087.66;;;7.00;56.11
5609;BME280;2826;51.354;9.588;2023-02-04T12:47:20;100097.97;;;6.97;56.04
5609;BME280;2826;51.354;9.588;2023-02-04T12:49:47;100094.50;;;6.92;56.78
5609;BME280;2826;51.354;9.588;2023-02-04T12:52:14;100102.19;;;6.86;56.45
5609;BME280;2826;51.354;9.588;2023-02-04T12:54:40;100101.34;;;6.85;57.62
5609;BME280;2826;51.354;9.588;2023-02-04T12:57:08;100096.22;;;6.95;57.37
5609;BME280;2826;51.354;9.588;2023-02-04T12:59:35;100104.81;;;6.90;56.70
5609;BME280;2826;51.354;9.588;2023-02-04T13:02:02;100105.63;;;6.91;57.39
5609;BME280;2826;51.354;9.588;2023-02-04T13:04:29;100108.16;;;6.82;56.74
5609;BME280;2826;51.354;9.588;2023-02-04T13:06:56;100108.09;;;6.71;58.30
5609;BME280;2826;51.354;9.588;2023-02-04T13:09:23;100102.97;;;6.75;58.12
5609;BME280;2826;51.354;9.588;2023-02-04T13:11:50;100103.84;;;6.76;57.45
5609;BME280;2826;51.354;9.588;2023-02-04T13:14:16;100096.94;;;6.72;57.48
5609;BME280;2826;51.354;9.588;2023-02-04T13:16:43;100092.63;;;6.71;56.26
5609;BME280;2826;51.354;9.588;2023-02-04T13:19:09;100092.63;;;6.71;57.20
5609;BME280;2826;51.354;9.588;2023-02-04T13:21:36;100097.00;;;6.79;57.42
5609;BME280;2826;51.354;9.588;2023-02-04T13:24:04;100107.34;;;6.86;56.31
5609;BME280;2826;51.354;9.588;2023-02-04T13:26:30;100111.59;;;6.80;55.62
5609;BME280;2826;51.354;9.588;2023-02-04T13:28:57;100103.88;;;6.80;57.04
5609;BME280;2826;51.354;9.588;2023-02-04T13:31:24;100098.66;;;6.73;56.02
5609;BME280;2826;51.354;9.588;2023-02-04T13:33:50;100095.25;;;6.75;57.10